createdAt,value
2022-08-28T00:00:37.572Z,37.67
2022-08-28T00:03:05.781Z,42.30
2022-08-28T00:05:34.105Z,46.97
2022-08-28T00:08:00.789Z,41.70
2022-08-28T00:10:28.159Z,43.65
2022-08-28T00:12:57.492Z,43.97
2022-08-28T00:15:33.879Z,43.88
2022-08-28T00:18:01.798Z,44.83
2022-08-28T00:20:29.077Z,45.10
2022-08-28T00:25:38.393Z,44.35
2022-08-28T00:28:08.832Z,44.83
2022-08-28T00:30:46.556Z,39.75
2022-08-28T00:33:38.100Z,43.53
2022-08-28T00:36:05.197Z,52.10
2022-08-28T00:38:31.822Z,45.67
2022-08-28T00:41:03.842Z,42.05
2022-08-28T00:43:36.618Z,40.95
2022-08-28T00:46:06.583Z,38.78
2022-08-28T00:48:33.200Z,45.65
2022-08-28T00:51:19.456Z,41.25
2022-08-28T00:53:46.131Z,46.70
2022-08-28T00:56:16.526Z,45.17
2022-08-28T00:58:45.091Z,42.78
2022-08-28T01:01:13.097Z,35.28
2022-08-28T01:03:41.055Z,42.63
2022-08-28T01:06:08.367Z,37.00
2022-08-28T01:08:36.952Z,41.30
2022-08-28T01:11:07.645Z,43.30
2022-08-28T01:13:36.583Z,47.10
2022-08-28T01:16:04.062Z,43.33
2022-08-28T01:18:33.217Z,41.35
2022-08-28T01:21:20.556Z,46.08
2022-08-28T01:23:58.126Z,39.00
2022-08-28T01:26:27.753Z,39.90
2022-08-28T01:28:55.728Z,38.70
2022-08-28T01:31:22.392Z,36.88
2022-08-28T01:33:49.163Z,42.28
2022-08-28T01:36:16.262Z,35.72
2022-08-28T01:38:45.578Z,41.08
2022-08-28T01:41:14.054Z,33.53
2022-08-28T01:43:41.699Z,42.13
2022-08-28T01:46:09.889Z,39.38
2022-08-28T01:48:39.931Z,40.88
2022-08-28T01:51:06.866Z,38.97
2022-08-28T01:53:33.778Z,40.35
2022-08-28T01:56:02.907Z,42.03
2022-08-28T01:58:37.556Z,38.92
2022-08-28T02:01:10.609Z,44.13
2022-08-28T02:03:37.377Z,36.85
2022-08-28T02:06:04.806Z,36.47
2022-08-28T02:08:31.832Z,40.45
2022-08-28T02:10:59.008Z,40.72
2022-08-28T02:13:25.723Z,44.83
2022-08-28T02:15:52.684Z,38.20
2022-08-28T02:18:19.438Z,38.65
2022-08-28T02:20:46.626Z,42.00
2022-08-28T02:23:13.833Z,40.72
2022-08-28T02:25:40.761Z,40.15
2022-08-28T02:28:07.518Z,39.17
2022-08-28T02:30:35.443Z,40.53
2022-08-28T02:33:02.579Z,42.20
2022-08-28T02:35:29.964Z,39.65
2022-08-28T02:37:57.021Z,43.90
2022-08-28T02:40:24.603Z,42.08
2022-08-28T02:42:52.269Z,42.47
2022-08-28T02:45:19.793Z,46.03
2022-08-28T02:47:47.855Z,41.88
2022-08-28T02:50:17.050Z,45.05
2022-08-28T02:52:44.070Z,37.80
2022-08-28T02:55:12.599Z,39.00
2022-08-28T02:57:39.812Z,44.55
2022-08-28T03:00:11.733Z,40.33
2022-08-28T03:02:39.666Z,44.58
2022-08-28T03:05:06.499Z,46.42
2022-08-28T03:07:33.203Z,41.63
2022-08-28T03:09:59.762Z,43.47
2022-08-28T03:12:26.442Z,39.38
2022-08-28T03:14:54.490Z,41.17
2022-08-28T03:17:22.164Z,36.55
2022-08-28T03:19:50.182Z,44.67
2022-08-28T03:22:39.607Z,40.60
2022-08-28T03:25:06.919Z,42.55
2022-08-28T03:27:33.618Z,40.08
2022-08-28T03:30:00.199Z,38.05
2022-08-28T03:32:26.872Z,38.97
2022-08-28T03:34:56.990Z,42.38
2022-08-28T03:37:23.605Z,39.25
2022-08-28T03:39:50.372Z,39.17
2022-08-28T03:42:17.286Z,42.88
2022-08-28T03:44:44.087Z,40.33
2022-08-28T03:47:12.278Z,39.45
2022-08-28T03:49:39.842Z,38.05
2022-08-28T03:52:08.790Z,37.78
2022-08-28T03:54:35.320Z,36.58
2022-08-28T03:57:01.820Z,37.90
2022-08-28T03:59:31.754Z,36.60
2022-08-28T04:02:00.409Z,39.70
2022-08-28T04:04:26.922Z,35.97
2022-08-28T04:06:53.514Z,37.90
2022-08-28T04:09:20.116Z,36.17
2022-08-28T04:11:46.630Z,37.38
2022-08-28T04:14:13.119Z,33.03
2022-08-28T04:16:39.806Z,34.03
2022-08-28T04:19:06.318Z,32.92
2022-08-28T04:21:32.820Z,33.70
2022-08-28T04:23:59.326Z,34.03
2022-08-28T04:26:27.906Z,37.22
2022-08-28T04:28:56.149Z,35.70
2022-08-28T04:31:32.208Z,35.90
2022-08-28T04:34:05.117Z,33.42
2022-08-28T04:36:32.786Z,35.35
2022-08-28T04:38:59.701Z,31.13
2022-08-28T04:41:26.732Z,32.85
2022-08-28T04:43:53.926Z,31.40
2022-08-28T04:46:20.581Z,33.55
2022-08-28T04:48:47.201Z,29.50
2022-08-28T04:51:15.153Z,29.35
2022-08-28T04:53:42.671Z,28.17
2022-08-28T04:56:12.722Z,30.20
2022-08-28T04:58:40.606Z,30.77
2022-08-28T05:01:13.959Z,28.60
2022-08-28T05:03:40.978Z,29.75
2022-08-28T05:06:08.171Z,26.67
2022-08-28T05:08:34.962Z,27.25
2022-08-28T05:11:30.738Z,26.45
2022-08-28T05:14:02.432Z,28.20
2022-08-28T05:16:29.084Z,26.00
2022-08-28T05:19:00.397Z,26.50
2022-08-28T05:21:28.295Z,24.42
2022-08-28T05:23:57.547Z,23.50
2022-08-28T05:26:27.148Z,24.42
2022-08-28T05:28:58.876Z,24.63
2022-08-28T05:31:27.718Z,23.65
2022-08-28T05:33:54.355Z,22.80
2022-08-28T05:36:23.227Z,21.48
2022-08-28T05:38:57.103Z,22.80
2022-08-28T05:41:28.385Z,23.58
2022-08-28T05:43:54.934Z,22.15
2022-08-28T05:46:22.391Z,22.80
2022-08-28T05:48:49.416Z,22.70
2022-08-28T05:51:19.462Z,22.45
2022-08-28T05:53:47.931Z,23.13
2022-08-28T05:56:17.552Z,22.40
2022-08-28T05:58:44.131Z,24.33
2022-08-28T06:01:20.085Z,24.33
2022-08-28T06:04:01.596Z,20.85
2022-08-28T06:06:30.363Z,26.13
2022-08-28T06:08:59.473Z,23.50
2022-08-28T06:11:30.424Z,24.20
2022-08-28T06:14:02.744Z,22.67
2022-08-28T06:16:31.301Z,22.05
2022-08-28T06:18:58.471Z,21.95
2022-08-28T06:21:25.075Z,24.42
2022-08-28T06:23:51.966Z,22.17
2022-08-28T06:26:18.863Z,22.45
2022-08-28T06:28:45.442Z,21.17
2022-08-28T06:31:23.263Z,23.20
2022-08-28T06:33:50.893Z,22.17
2022-08-28T06:36:17.512Z,25.08
2022-08-28T06:38:46.667Z,23.27
2022-08-28T06:41:14.344Z,22.90
2022-08-28T06:43:41.502Z,22.95
2022-08-28T06:46:08.182Z,24.88
2022-08-28T06:48:34.856Z,24.90
2022-08-28T06:51:01.705Z,23.13
2022-08-28T06:53:30.510Z,22.80
2022-08-28T06:56:07.238Z,20.45
2022-08-28T06:58:35.313Z,23.23
2022-08-28T07:01:08.027Z,21.60
2022-08-28T07:03:35.050Z,18.65
2022-08-28T07:06:04.778Z,19.60
2022-08-28T07:08:32.338Z,17.10
2022-08-28T07:10:59.493Z,20.45
2022-08-28T07:13:29.122Z,18.17
2022-08-28T07:15:57.821Z,17.17
2022-08-28T07:18:24.352Z,21.85
2022-08-28T07:20:58.785Z,18.27
2022-08-28T07:23:26.107Z,18.42
2022-08-28T07:25:52.626Z,18.88
2022-08-28T07:28:19.508Z,16.23
2022-08-28T07:30:46.353Z,16.90
2022-08-28T07:33:12.911Z,18.48
2022-08-28T07:35:43.497Z,15.32
2022-08-28T07:38:10.014Z,16.50
2022-08-28T07:40:36.670Z,14.45
2022-08-28T07:43:21.882Z,15.55
2022-08-28T07:45:57.915Z,13.37
2022-08-28T07:48:24.876Z,14.18
2022-08-28T07:50:51.456Z,14.13
2022-08-28T07:53:18.132Z,15.48
2022-08-28T07:55:45.757Z,14.55
2022-08-28T07:58:13.791Z,13.27
2022-08-28T08:00:41.429Z,15.68
2022-08-28T08:03:08.109Z,13.68
2022-08-28T08:05:34.714Z,13.45
2022-08-28T08:08:01.423Z,15.10
2022-08-28T08:10:27.965Z,12.57
2022-08-28T08:13:00.900Z,12.07
2022-08-28T08:15:31.199Z,14.10
2022-08-28T08:17:57.958Z,13.00
2022-08-28T08:20:24.491Z,12.57
2022-08-28T08:22:51.057Z,13.10
2022-08-28T08:25:17.757Z,11.07
2022-08-28T08:27:44.374Z,12.80
2022-08-28T08:30:11.707Z,11.50
2022-08-28T08:32:40.134Z,12.85
2022-08-28T08:35:07.121Z,14.00
2022-08-28T08:37:33.653Z,12.63
2022-08-28T08:40:00.405Z,11.98
2022-08-28T08:42:33.233Z,11.82
2022-08-28T08:45:04.199Z,12.35
2022-08-28T08:47:43.047Z,12.75
2022-08-28T08:50:17.320Z,10.48
2022-08-28T08:53:11.449Z,11.65
2022-08-28T08:55:50.993Z,9.98
2022-08-28T08:58:28.711Z,9.15
2022-08-28T09:01:11.602Z,11.07
2022-08-28T09:04:00.777Z,9.70
2022-08-28T09:06:46.428Z,10.07
2022-08-28T09:09:32.180Z,10.63
2022-08-28T09:12:05.387Z,11.20
2022-08-28T09:15:08.883Z,8.80
2022-08-28T09:17:57.434Z,8.98
2022-08-28T09:20:32.327Z,8.52
2022-08-28T09:23:02.021Z,8.38
2022-08-28T09:25:54.773Z,8.05
2022-08-28T09:28:30.908Z,7.88
2022-08-28T09:33:52.368Z,7.85
2022-08-28T09:36:26.257Z,7.72
2022-08-28T09:39:21.939Z,7.50
2022-08-28T09:42:25.135Z,7.15
2022-08-28T09:45:10.117Z,6.18
2022-08-28T09:47:56.010Z,6.57
2022-08-28T09:50:32.957Z,6.70
2022-08-28T09:53:20.796Z,6.22
2022-08-28T09:55:56.292Z,6.55
2022-08-28T09:58:36.451Z,6.30
2022-08-28T10:01:14.867Z,8.35
2022-08-28T10:03:53.371Z,6.07
2022-08-28T10:06:33.293Z,7.95
2022-08-28T10:09:15.062Z,6.05
2022-08-28T10:11:56.553Z,9.00
2022-08-28T10:14:38.449Z,8.13
2022-08-28T10:17:16.765Z,7.85
2022-08-28T10:20:43.195Z,8.70
2022-08-28T10:23:31.577Z,7.45
2022-08-28T10:26:33.292Z,6.68
2022-08-28T10:29:15.810Z,9.82
2022-08-28T10:32:09.986Z,6.55
2022-08-28T10:34:44.229Z,7.80
2022-08-28T10:37:17.829Z,6.85
2022-08-28T10:39:53.052Z,8.63
2022-08-28T10:45:19.159Z,8.32
2022-08-28T10:48:00.495Z,7.15
2022-08-28T10:50:43.008Z,6.70
2022-08-28T10:53:38.023Z,7.97
2022-08-28T10:56:12.529Z,6.50
2022-08-28T10:58:41.043Z,5.83
2022-08-28T11:01:27.926Z,7.80
2022-08-28T11:03:57.311Z,6.55
2022-08-28T11:06:35.935Z,7.97
2022-08-28T11:09:24.930Z,8.10
2022-08-28T11:12:21.587Z,10.73
2022-08-28T11:14:51.162Z,9.50
2022-08-28T11:17:25.240Z,10.43
2022-08-28T11:20:12.374Z,11.63
2022-08-28T11:22:45.512Z,10.23
2022-08-28T11:25:18.912Z,8.15
2022-08-28T11:28:14.150Z,9.02
2022-08-28T11:30:42.862Z,8.43
2022-08-28T11:33:52.764Z,9.85
2022-08-28T11:36:22.095Z,7.85
2022-08-28T11:38:51.609Z,7.95
2022-08-28T11:41:36.491Z,8.30
2022-08-28T11:44:15.112Z,7.90
2022-08-28T11:46:44.488Z,7.55
2022-08-28T11:49:29.215Z,6.95
2022-08-28T11:52:23.413Z,7.60
2022-08-28T11:55:12.308Z,6.95
2022-08-28T12:00:54.297Z,6.97
2022-08-28T12:03:37.366Z,6.88
2022-08-28T12:06:04.977Z,7.18
2022-08-28T12:08:51.275Z,7.78
2022-08-28T12:11:48.341Z,7.00
2022-08-28T12:14:27.553Z,8.40
2022-08-28T12:17:00.200Z,9.10
2022-08-28T12:19:41.545Z,9.60
2022-08-28T12:22:25.846Z,9.67
2022-08-28T12:24:57.573Z,11.23
2022-08-28T12:27:24.590Z,12.30
2022-08-28T12:29:55.583Z,13.52
2022-08-28T12:32:57.210Z,15.85
2022-08-28T12:35:29.578Z,13.82
2022-08-28T12:37:57.414Z,13.05
2022-08-28T12:40:50.250Z,12.98
2022-08-28T12:43:35.826Z,14.70
2022-08-28T12:46:19.727Z,12.63
2022-08-28T12:48:54.140Z,12.93
2022-08-28T12:51:27.782Z,12.75
2022-08-28T12:53:57.443Z,10.70
2022-08-28T12:56:26.099Z,12.07
2022-08-28T12:58:53.891Z,10.05
2022-08-28T13:01:31.545Z,8.82
2022-08-28T13:04:02.554Z,9.27
2022-08-28T13:06:39.643Z,10.27
2022-08-28T13:09:15.608Z,8.18
2022-08-28T13:11:49.227Z,7.63
2022-08-28T13:14:44.090Z,7.38
2022-08-28T13:17:14.314Z,8.18
2022-08-28T13:19:41.433Z,8.80
2022-08-28T13:22:29.688Z,7.82
2022-08-28T13:25:01.069Z,7.97
2022-08-28T13:27:31.153Z,9.20
2022-08-28T13:30:02.873Z,6.97
2022-08-28T13:32:34.370Z,7.00
2022-08-28T13:35:24.934Z,7.10
2022-08-28T13:37:57.391Z,7.22
2022-08-28T13:40:56.214Z,7.03
2022-08-28T13:43:18.252Z,6.72
2022-08-28T13:45:46.222Z,6.15
2022-08-28T13:48:15.734Z,6.95
2022-08-28T13:50:46.944Z,9.15
2022-08-28T13:53:15.687Z,6.13
2022-08-28T13:55:42.422Z,5.38
2022-08-28T13:58:08.947Z,4.63
2022-08-28T14:00:41.097Z,4.07
2022-08-28T14:03:26.180Z,6.93
2022-08-28T14:05:53.158Z,3.47
2022-08-28T14:08:19.650Z,6.93
2022-08-28T14:10:46.565Z,4.15
2022-08-28T14:13:13.281Z,4.13
2022-08-28T14:15:40.153Z,6.38
2022-08-28T14:18:06.771Z,5.88
2022-08-28T14:20:33.330Z,4.72
2022-08-28T14:22:59.870Z,3.53
2022-08-28T14:25:27.728Z,5.13
2022-08-28T14:27:55.810Z,5.65
2022-08-28T14:30:24.049Z,3.63
2022-08-28T14:32:50.590Z,3.83
2022-08-28T14:35:17.113Z,6.43
2022-08-28T14:37:43.652Z,4.93
2022-08-28T14:40:12.679Z,4.40
2022-08-28T14:42:39.505Z,4.38
2022-08-28T14:45:06.510Z,3.85
2022-08-28T14:47:33.078Z,5.60
2022-08-28T14:49:59.616Z,4.15
2022-08-28T14:52:26.513Z,3.95
2022-08-28T14:54:53.294Z,3.72
2022-08-28T14:57:19.854Z,4.63
2022-08-28T14:59:46.780Z,4.50
2022-08-28T15:02:13.630Z,3.95
2022-08-28T15:04:40.198Z,4.78
2022-08-28T15:07:10.891Z,4.70
2022-08-28T15:09:40.589Z,9.23
2022-08-28T15:12:08.784Z,6.78
2022-08-28T15:14:36.087Z,3.80
2022-08-28T15:17:04.491Z,4.43
2022-08-28T15:19:31.243Z,6.53
2022-08-28T15:21:58.738Z,4.22
2022-08-28T15:24:31.574Z,5.50
2022-08-28T15:26:59.627Z,5.75
2022-08-28T15:29:30.027Z,4.53
2022-08-28T15:31:57.490Z,5.30
2022-08-28T15:34:26.668Z,4.35
2022-08-28T15:36:54.761Z,5.40
2022-08-28T15:39:45.454Z,5.43
2022-08-28T15:42:12.449Z,6.78
2022-08-28T15:44:40.059Z,6.47
2022-08-28T15:47:07.333Z,7.88
2022-08-28T15:49:43.620Z,7.03
2022-08-28T15:52:15.564Z,6.25
2022-08-28T15:54:42.847Z,8.95
2022-08-28T15:57:09.550Z,7.90
2022-08-28T15:59:48.334Z,6.40
2022-08-28T16:02:17.936Z,7.13
2022-08-28T16:04:44.472Z,7.53
2022-08-28T16:07:11.142Z,6.75
2022-08-28T16:09:37.826Z,7.25
2022-08-28T16:12:04.709Z,8.00
2022-08-28T16:14:32.839Z,7.03
2022-08-28T16:17:05.985Z,6.95
2022-08-28T16:19:37.895Z,8.70
2022-08-28T16:22:05.168Z,7.50
2022-08-28T16:24:31.780Z,9.48
2022-08-28T16:26:58.386Z,8.65
2022-08-28T16:29:24.915Z,8.65
2022-08-28T16:31:51.786Z,7.65
2022-08-28T16:34:19.641Z,8.45
2022-08-28T16:36:50.400Z,8.90
2022-08-28T16:39:17.038Z,7.88
2022-08-28T16:41:49.657Z,8.02
2022-08-28T16:44:21.158Z,9.43
2022-08-28T16:46:47.883Z,10.60
2022-08-28T16:49:15.125Z,10.35
2022-08-28T16:51:41.663Z,10.57
2022-08-28T16:54:08.276Z,10.23
2022-08-28T16:56:34.905Z,11.60
2022-08-28T16:59:01.415Z,12.18
2022-08-28T17:01:28.066Z,12.50
2022-08-28T17:03:55.165Z,16.30
2022-08-28T17:06:25.526Z,13.98
2022-08-28T17:08:56.673Z,13.00
2022-08-28T17:11:25.683Z,14.18
2022-08-28T17:13:52.320Z,15.93
2022-08-28T17:16:20.547Z,12.77
2022-08-28T17:18:52.025Z,15.45
2022-08-28T17:21:37.815Z,15.70
2022-08-28T17:24:04.566Z,14.70
2022-08-28T17:26:31.060Z,18.20
2022-08-28T17:28:57.590Z,16.77
2022-08-28T17:31:24.229Z,14.93
2022-08-28T17:33:50.891Z,16.95
2022-08-28T17:36:32.386Z,17.90
2022-08-28T17:39:00.283Z,15.15
2022-08-28T17:41:27.620Z,16.00
2022-08-28T17:43:54.339Z,15.02
2022-08-28T17:46:20.951Z,16.92
2022-08-28T17:48:55.697Z,18.45
2022-08-28T17:51:42.823Z,21.67
2022-08-28T17:54:16.760Z,18.05
2022-08-28T17:56:43.892Z,22.20
2022-08-28T17:59:11.669Z,19.75
2022-08-28T18:01:38.669Z,24.17
2022-08-28T18:04:05.768Z,23.70
2022-08-28T18:06:33.074Z,26.33
2022-08-28T18:09:00.470Z,32.70
2022-08-28T18:11:27.433Z,26.45
2022-08-28T18:13:54.171Z,26.55
2022-08-28T18:16:20.923Z,25.20
2022-08-28T18:18:47.606Z,22.05
2022-08-28T18:21:14.943Z,25.65
2022-08-28T18:23:41.524Z,25.08
2022-08-28T18:26:08.520Z,25.95
2022-08-28T18:28:36.695Z,22.60
2022-08-28T18:31:05.712Z,21.42
2022-08-28T18:33:35.305Z,25.02
2022-08-28T18:36:02.037Z,24.80
2022-08-28T18:38:28.667Z,24.17
2022-08-28T18:40:58.197Z,22.73
2022-08-28T18:43:24.720Z,26.00
2022-08-28T18:45:51.455Z,24.65
2022-08-28T18:48:19.262Z,26.17
2022-08-28T18:50:49.963Z,22.58
2022-08-28T18:53:19.883Z,22.95
2022-08-28T18:55:46.402Z,24.70
2022-08-28T18:58:14.974Z,20.10
2022-08-28T19:00:42.164Z,22.20
2022-08-28T19:03:09.263Z,20.63
2022-08-28T19:05:37.682Z,26.35
2022-08-28T19:08:04.765Z,24.00
2022-08-28T19:10:34.389Z,22.23
2022-08-28T19:13:01.944Z,21.67
2022-08-28T19:15:29.115Z,22.17
2022-08-28T19:17:56.200Z,23.55
2022-08-28T19:20:23.719Z,28.90
2022-08-28T19:22:50.317Z,21.73
2022-08-28T19:25:27.474Z,23.50
2022-08-28T19:27:56.256Z,21.52
2022-08-28T19:30:25.780Z,19.55
2022-08-28T19:32:52.428Z,19.20
2022-08-28T19:35:19.114Z,21.77
2022-08-28T19:37:45.777Z,24.85
2022-08-28T19:40:13.493Z,22.02
2022-08-28T19:42:42.134Z,22.65
2022-08-28T19:45:12.528Z,19.38
2022-08-28T19:47:39.484Z,22.70
2022-08-28T19:50:08.687Z,19.80
2022-08-28T19:52:36.448Z,19.42
2022-08-28T19:55:05.827Z,19.60
2022-08-28T19:57:33.819Z,21.45
2022-08-28T20:00:00.779Z,19.33
2022-08-28T20:02:29.461Z,19.83
2022-08-28T20:04:56.253Z,22.48
2022-08-28T20:07:24.391Z,22.35
2022-08-28T20:09:51.855Z,22.13
2022-08-28T20:12:22.240Z,18.95
2022-08-28T20:14:49.359Z,17.58
2022-08-28T20:17:17.746Z,17.95
2022-08-28T20:19:46.174Z,18.10
2022-08-28T20:22:12.727Z,17.20
2022-08-28T20:24:39.450Z,20.08
2022-08-28T20:27:06.114Z,19.98
2022-08-28T20:29:36.351Z,19.25
2022-08-28T20:32:03.487Z,14.43
2022-08-28T20:34:30.034Z,16.70
2022-08-28T20:36:56.579Z,15.82
2022-08-28T20:39:23.452Z,16.35
2022-08-28T20:41:50.104Z,18.15
2022-08-28T20:44:19.076Z,16.95
2022-08-28T20:46:51.591Z,16.08
2022-08-28T20:49:23.833Z,18.77
2022-08-28T20:51:53.450Z,14.13
2022-08-28T20:54:35.903Z,14.18
2022-08-28T20:57:07.791Z,15.80
2022-08-28T20:59:39.939Z,21.73
2022-08-28T21:02:10.632Z,15.27
2022-08-28T21:04:39.697Z,17.83
2022-08-28T21:07:06.372Z,13.20
2022-08-28T21:09:43.954Z,15.10
2022-08-28T21:12:20.039Z,16.48
2022-08-28T21:14:51.395Z,15.65
2022-08-28T21:17:22.679Z,13.57
2022-08-28T21:19:57.369Z,14.27
2022-08-28T21:22:24.942Z,12.85
2022-08-28T21:24:51.677Z,13.50
2022-08-28T21:27:18.772Z,13.13
2022-08-28T21:29:46.155Z,13.25
2022-08-28T21:32:13.041Z,14.02
2022-08-28T21:34:39.744Z,15.82
2022-08-28T21:37:06.575Z,12.40
2022-08-28T21:39:33.442Z,16.95
2022-08-28T21:42:00.132Z,12.52
2022-08-28T21:44:26.694Z,12.50
2022-08-28T21:46:53.259Z,15.35
2022-08-28T21:49:20.153Z,14.30
2022-08-28T21:51:47.304Z,13.05
2022-08-28T21:54:14.219Z,13.07
2022-08-28T21:56:41.061Z,16.85
2022-08-28T21:59:07.623Z,13.88
2022-08-28T22:01:34.343Z,17.63
2022-08-28T22:04:01.138Z,11.70
2022-08-28T22:06:27.700Z,12.77
2022-08-28T22:08:55.805Z,15.63
2022-08-28T22:11:25.183Z,14.10
2022-08-28T22:13:52.383Z,20.58
2022-08-28T22:16:19.128Z,16.17
2022-08-28T22:18:45.678Z,14.18
2022-08-28T22:21:34.103Z,14.40
2022-08-28T22:24:01.484Z,12.93
2022-08-28T22:26:29.454Z,15.48
2022-08-28T22:28:56.287Z,11.70
2022-08-28T22:31:23.776Z,13.60
2022-08-28T22:33:51.180Z,18.33
2022-08-28T22:36:17.889Z,12.85
2022-08-28T22:38:47.153Z,14.98
2022-08-28T22:41:20.255Z,12.93
2022-08-28T22:43:50.972Z,13.90
2022-08-28T22:46:20.493Z,12.73
2022-08-28T22:48:47.683Z,16.75
2022-08-28T22:51:18.291Z,13.93
2022-08-28T22:53:45.446Z,15.70
2022-08-28T22:56:12.272Z,11.40
2022-08-28T22:58:39.359Z,14.50
2022-08-28T23:01:19.710Z,13.02
2022-08-28T23:03:46.786Z,17.42
2022-08-28T23:06:13.959Z,14.15
2022-08-28T23:08:40.692Z,17.05
2022-08-28T23:11:07.409Z,17.80
2022-08-28T23:13:34.033Z,16.50
2022-08-28T23:16:01.556Z,21.23
2022-08-28T23:18:29.107Z,12.70
2022-08-28T23:20:56.055Z,14.73
2022-08-28T23:23:25.418Z,14.05
2022-08-28T23:25:52.016Z,17.08
2022-08-28T23:28:19.964Z,15.10
2022-08-28T23:30:48.498Z,16.15
2022-08-28T23:33:23.588Z,19.52
2022-08-28T23:35:50.633Z,13.27
2022-08-28T23:38:17.152Z,15.80
2022-08-28T23:40:44.385Z,16.35
2022-08-28T23:43:11.545Z,13.90
2022-08-28T23:45:42.254Z,15.52
2022-08-28T23:48:09.167Z,16.05
2022-08-28T23:50:36.257Z,17.48
2022-08-28T23:53:04.012Z,17.20
2022-08-28T23:55:30.981Z,15.15
2022-08-28T23:58:00.326Z,13.93
